Time;durP1;ratioP1;P1;durP2;ratioP2;P2;SDS_P1;SDS_P2;PMS_P1;PMS_P2;Temp;Humidity;BMP_temperature;BMP_pressure;BME280_temperature;BME280_humidity;BME280_pressure;Samples;Min_cycle;Max_cycle;Signal;HPM_P1;HPM_P2
2023/12/08 00:01:56;;;;;;;;;;;;;;;22.99;29.51;100840.06;5008663;28;19918;-46
2023/12/08 00:04:21;;;;;;;;;;;;;;;22.98;29.45;100833.81;5025079;28;20446;-49
2023/12/08 00:06:46;;;;;;;;;;;;;;;22.95;29.44;100832.31;5035835;28;19919;-48
2023/12/08 00:09:12;;;;;;;;;;;;;;;22.97;29.31;100820.44;5020770;28;19918;-48
2023/12/08 00:11:37;;;;;;;;;;;;;;;22.94;29.52;100808.13;5020254;28;19918;-49
2023/12/08 00:14:03;;;;;;;;;;;;;;;22.94;29.42;100806.25;5025096;28;19913;-44
2023/12/08 00:16:30;;;;;;;;;;;;;;;22.93;29.13;100792.88;5015563;28;19918;-49
2023/12/08 00:18:56;;;;;;;;;;;;;;;22.90;29.44;100791.41;5016338;28;19979;-47
2023/12/08 00:21:21;;;;;;;;;;;;;;;22.90;29.23;100801.44;5031804;28;19912;-47
2023/12/08 00:23:46;;;;;;;;;;;;;;;22.84;29.26;100808.44;5019933;28;19965;-50
2023/12/08 00:26:12;;;;;;;;;;;;;;;22.84;29.58;100804.88;5028404;28;19940;-46
2023/12/08 00:28:37;;;;;;;;;;;;;;;22.80;29.35;100798.16;5042531;28;19914;-44
2023/12/08 00:31:02;;;;;;;;;;;;;;;22.78;29.27;100790.25;5067751;28;19912;-46
2023/12/08 00:33:27;;;;;;;;;;;;;;;22.77;29.37;100795.84;5011061;28;19963;-48
2023/12/08 00:35:53;;;;;;;;;;;;;;;22.77;29.50;100783.16;5035516;28;19928;-47
2023/12/08 00:38:18;;;;;;;;;;;;;;;22.76;29.48;100780.63;5033922;28;19914;-49
2023/12/08 00:40:43;;;;;;;;;;;;;;;22.75;29.67;100776.25;5010738;28;19914;-46
2023/12/08 00:43:08;;;;;;;;;;;;;;;22.74;29.41;100775.41;5024396;28;19918;-46
2023/12/08 00:45:33;;;;;;;;;;;;;;;22.75;29.63;100770.81;5020916;28;20280;-48
2023/12/08 00:47:59;;;;;;;;;;;;;;;22.70;29.54;100764.13;5020981;28;19917;-49
2023/12/08 00:50:24;;;;;;;;;;;;;;;22.70;29.53;100761.41;5050033;28;19993;-45
2023/12/08 00:52:49;;;;;;;;;;;;;;;22.68;29.51;100762.63;5037222;28;19944;-47
2023/12/08 00:55:14;;;;;;;;;;;;;;;22.68;29.31;100754.50;5018768;28;19932;-48
2023/12/08 00:57:40;;;;;;;;;;;;;;;22.65;29.65;100758.47;5016862;28;19913;-48
2023/12/08 01:00:05;;;;;;;;;;;;;;;22.62;29.39;100752.59;5026409;28;19942;-46
2023/12/08 01:02:30;;;;;;;;;;;;;;;22.57;29.46;100749.66;5049192;28;19914;-48
2023/12/08 01:04:55;;;;;;;;;;;;;;;22.53;29.56;100746.50;5052551;28;19922;-49
2023/12/08 01:07:21;;;;;;;;;;;;;;;22.51;29.91;100748.53;5032529;28;19913;-48
2023/12/08 01:09:46;;;;;;;;;;;;;;;22.52;29.62;100739.41;5020988;28;19936;-49
2023/12/08 01:12:11;;;;;;;;;;;;;;;22.51;29.66;100740.41;5071285;28;19914;-49
2023/12/08 01:14:36;;;;;;;;;;;;;;;22.50;29.72;100737.91;5036475;28;19912;-46
2023/12/08 01:17:02;;;;;;;;;;;;;;;22.50;29.72;100732.50;5044283;28;19916;-47
2023/12/08 01:19:27;;;;;;;;;;;;;;;22.51;29.91;100734.16;5039995;28;19979;-47
2023/12/08 01:21:52;;;;;;;;;;;;;;;22.51;29.65;100736.88;5046515;28;19918;-46
2023/12/08 01:24:17;;;;;;;;;;;;;;;22.51;29.57;100735.00;5029302;28;19914;-47
2023/12/08 01:26:43;;;;;;;;;;;;;;;22.54;29.57;100739.19;5014974;28;19918;-49
2023/12/08 01:29:09;;;;;;;;;;;;;;;22.51;29.64;100737.69;5025946;28;19917;-45
2023/12/08 01:31:34;;;;;;;;;;;;;;;22.50;29.60;100737.91;5040278;28;19913;-46
2023/12/08 01:33:59;;;;;;;;;;;;;;;22.49;29.57;100734.38;5019680;28;19953;-48
2023/12/08 01:36:24;;;;;;;;;;;;;;;22.51;29.65;100740.41;5026749;28;19939;-49
2023/12/08 01:38:49;;;;;;;;;;;;;;;22.55;29.52;100735.44;5030755;28;19921;-47
2023/12/08 01:41:15;;;;;;;;;;;;;;;22.53;29.66;100732.09;5013258;28;19921;-48
2023/12/08 01:43:40;;;;;;;;;;;;;;;22.53;29.52;100738.34;5010315;28;19933;-45
2023/12/08 01:46:05;;;;;;;;;;;;;;;22.50;29.61;100733.31;5041752;28;19916;-46
2023/12/08 01:48:31;;;;;;;;;;;;;;;22.50;29.91;100725.19;5066006;28;19914;-45
2023/12/08 01:50:57;;;;;;;;;;;;;;;22.49;29.64;100719.97;5019659;28;19925;-49
2023/12/08 01:53:22;;;;;;;;;;;;;;;22.51;29.83;100721.44;5070639;28;19925;-49
2023/12/08 01:55:47;;;;;;;;;;;;;;;22.50;29.58;100708.94;5071922;28;20261;-50
2023/12/08 01:58:12;;;;;;;;;;;;;;;22.53;29.83;100715.84;5013929;28;19918;-49
2023/12/08 02:00:38;;;;;;;;;;;;;;;22.53;29.79;100721.25;5070002;28;19914;-50
2023/12/08 02:03:03;;;;;;;;;;;;;;;22.54;29.47;100717.50;5067118;28;19913;-49
2023/12/08 02:05:29;;;;;;;;;;;;;;;22.53;29.53;100716.69;5066911;28;20000;-47
2023/12/08 02:07:54;;;;;;;;;;;;;;;22.19;29.41;100645.16;5072201;28;19947;-48
2023/12/08 02:10:20;;;;;;;;;;;;;;;22.57;29.46;100709.84;5035013;28;19918;-47
2023/12/08 02:12:45;;;;;;;;;;;;;;;22.57;29.75;100704.41;5008189;28;19927;-48
2023/12/08 02:15:12;;;;;;;;;;;;;;;22.62;29.20;100720.06;5074642;28;20306;-48
2023/12/08 02:17:38;;;;;;;;;;;;;;;22.61;29.50;100723.84;5036495;28;19934;-48
2023/12/08 02:20:05;;;;;;;;;;;;;;;22.13;29.60;100642.41;5071899;28;19951;-48
2023/12/08 02:22:30;;;;;;;;;;;;;;;22.55;29.35;100714.59;5071362;28;20256;-47
2023/12/08 02:24:55;;;;;;;;;;;;;;;22.57;29.38;100706.28;5025592;28;19928;-46
2023/12/08 02:27:20;;;;;;;;;;;;;;;22.56;29.45;100694.63;5040931;28;19920;-49
2023/12/08 02:29:46;;;;;;;;;;;;;;;22.57;29.42;100698.16;5086289;28;19944;-48
2023/12/08 02:32:14;;;;;;;;;;;;;;;22.57;29.42;100704.41;5046978;28;19920;-45
2023/12/08 02:34:40;;;;;;;;;;;;;;;22.57;29.34;100693.56;5070215;28;20384;-45
2023/12/08 02:37:05;;;;;;;;;;;;;;;22.59;29.45;100696.06;5071240;28;19916;-49
2023/12/08 02:39:30;;;;;;;;;;;;;;;22.60;29.29;100692.31;5022581;28;19921;-50
2023/12/08 02:41:55;;;;;;;;;;;;;;;22.61;29.51;100694.84;5069146;28;19956;-48
2023/12/08 02:44:20;;;;;;;;;;;;;;;22.62;29.26;100691.09;5038920;28;19912;-49
2023/12/08 02:46:46;;;;;;;;;;;;;;;22.62;29.29;100682.97;5042213;28;19929;-48
2023/12/08 02:49:11;;;;;;;;;;;;;;;22.60;29.44;100685.06;5025370;28;19914;-46
2023/12/08 02:51:36;;;;;;;;;;;;;;;22.58;29.22;100673.56;5014124;28;19988;-49
2023/12/08 02:54:01;;;;;;;;;;;;;;;22.56;29.53;100669.41;5029840;28;19924;-45
2023/12/08 02:56:26;;;;;;;;;;;;;;;22.57;29.53;100663.78;5012053;28;20308;-47
2023/12/08 02:58:52;;;;;;;;;;;;;;;22.51;29.69;100661.00;5040426;28;20295;-48
2023/12/08 03:01:17;;;;;;;;;;;;;;;22.48;29.61;100659.53;5026913;28;19921;-46
2023/12/08 03:03:42;;;;;;;;;;;;;;;22.50;29.61;100653.91;5033412;28;19918;-45
2023/12/08 03:06:07;;;;;;;;;;;;;;;22.50;29.67;100656.63;5015144;28;20332;-45
2023/12/08 03:08:33;;;;;;;;;;;;;;;22.51;29.64;100658.28;5016914;28;19973;-49
2023/12/08 03:10:58;;;;;;;;;;;;;;;22.53;29.41;100657.06;5028380;28;19912;-46
2023/12/08 03:13:23;;;;;;;;;;;;;;;22.52;29.38;100644.56;5005907;28;19918;-48
2023/12/08 03:15:48;;;;;;;;;;;;;;;22.50;29.70;100651.22;5024193;28;19917;-45
2023/12/08 03:18:14;;;;;;;;;;;;;;;22.51;29.58;100634.75;5042752;28;19924;-46
2023/12/08 03:20:39;;;;;;;;;;;;;;;22.50;29.57;100624.13;5015405;28;19914;-46
2023/12/08 03:23:04;;;;;;;;;;;;;;;22.53;29.30;100621.03;5006011;28;19918;-45
2023/12/08 03:25:29;;;;;;;;;;;;;;;22.51;29.54;100623.91;5030999;28;19916;-45
2023/12/08 03:27:54;;;;;;;;;;;;;;;22.53;29.64;100615.59;5037740;28;19914;-46
2023/12/08 03:30:19;;;;;;;;;;;;;;;22.54;29.40;100618.09;5025881;28;20386;-46
2023/12/08 03:32:45;;;;;;;;;;;;;;;22.53;29.71;100616.44;5025963;28;20503;-48
2023/12/08 03:35:10;;;;;;;;;;;;;;;22.56;29.31;100623.34;5035187;28;19935;-46
2023/12/08 03:37:35;;;;;;;;;;;;;;;22.54;29.59;100620.81;5005473;28;19917;-47
2023/12/08 03:40:00;;;;;;;;;;;;;;;22.55;29.37;100625.19;5026115;28;20289;-47
2023/12/08 03:42:26;;;;;;;;;;;;;;;22.54;29.62;100618.09;5029834;28;19917;-47
2023/12/08 03:44:51;;;;;;;;;;;;;;;22.53;29.60;100612.88;5009849;28;20005;-49
2023/12/08 03:47:16;;;;;;;;;;;;;;;22.54;29.54;100609.97;5022030;28;19918;-44
2023/12/08 03:49:41;;;;;;;;;;;;;;;22.54;29.33;100609.97;5020389;28;20585;-45
2023/12/08 03:52:07;;;;;;;;;;;;;;;22.56;29.21;100612.50;5011404;28;19968;-46
2023/12/08 03:54:32;;;;;;;;;;;;;;;22.58;29.38;100608.53;5007765;28;19986;-48
2023/12/08 03:56:58;;;;;;;;;;;;;;;22.57;29.24;100603.31;5038480;28;19922;-50
2023/12/08 03:59:23;;;;;;;;;;;;;;;22.56;29.34;100607.09;5036164;28;19913;-45
2023/12/08 04:01:51;;;;;;;;;;;;;;;22.53;29.27;100593.94;5022646;28;19914;-45
2023/12/08 04:04:16;;;;;;;;;;;;;;;22.53;29.48;100588.50;5021221;28;19949;-45
2023/12/08 04:06:41;;;;;;;;;;;;;;;22.51;29.49;100590.56;5044998;28;20000;-46
2023/12/08 04:09:06;;;;;;;;;;;;;;;22.54;29.59;100587.47;5006567;28;19956;-47
2023/12/08 04:11:31;;;;;;;;;;;;;;;22.54;29.35;100580.16;5084935;28;19914;-49
2023/12/08 04:13:57;;;;;;;;;;;;;;;22.56;29.27;100574.56;5031530;28;19959;-45
2023/12/08 04:16:22;;;;;;;;;;;;;;;22.60;29.44;100571.25;5010602;28;20376;-46
2023/12/08 04:18:47;;;;;;;;;;;;;;;22.62;29.32;100571.03;5021504;28;19917;-48
2023/12/08 04:21:16;;;;;;;;;;;;;;;22.64;29.35;100567.09;5026624;28;19945;-46
2023/12/08 04:23:41;;;;;;;;;;;;;;;22.64;29.18;100571.66;5030526;28;19983;-44
2023/12/08 04:26:07;;;;;;;;;;;;;;;22.62;29.43;100571.03;5034625;28;19920;-49
2023/12/08 04:28:32;;;;;;;;;;;;;;;22.62;29.13;100568.34;5036090;28;20008;-46
2023/12/08 04:30:57;;;;;;;;;;;;;;;22.60;29.44;100578.53;5030778;28;19914;-45
2023/12/08 04:33:22;;;;;;;;;;;;;;;22.61;29.07;100572.09;5020662;28;19914;-45
2023/12/08 04:35:47;;;;;;;;;;;;;;;22.64;29.43;100571.66;5026901;28;19918;-46
2023/12/08 04:38:13;;;;;;;;;;;;;;;22.64;29.26;100572.53;5044626;28;19925;-44
2023/12/08 04:40:38;;;;;;;;;;;;;;;22.65;29.02;100578.78;5035504;28;19912;-48
2023/12/08 04:43:03;;;;;;;;;;;;;;;22.62;29.27;100585.41;5046895;28;19986;-48
2023/12/08 04:45:28;;;;;;;;;;;;;;;22.67;29.40;100584.81;5019084;28;19939;-45
2023/12/08 04:47:53;;;;;;;;;;;;;;;22.67;29.03;100590.22;5012419;28;19914;-49
2023/12/08 04:50:19;;;;;;;;;;;;;;;22.72;29.00;100595.88;5018183;28;19918;-45
2023/12/08 04:52:44;;;;;;;;;;;;;;;22.75;29.10;100611.75;5038765;28;19920;-44
2023/12/08 04:55:09;;;;;;;;;;;;;;;22.78;28.95;100603.22;5023219;28;19979;-46
2023/12/08 04:57:35;;;;;;;;;;;;;;;22.81;28.84;100605.53;5036821;28;19912;-47
2023/12/08 05:00:00;;;;;;;;;;;;;;;22.83;29.22;100613.47;5073321;28;19973;-46
2023/12/08 05:02:25;;;;;;;;;;;;;;;22.85;28.88;100604.09;5012015;28;19939;-45
2023/12/08 05:04:51;;;;;;;;;;;;;;;22.87;28.90;100607.44;5022875;28;19913;-44
2023/12/08 05:07:16;;;;;;;;;;;;;;;22.89;29.02;100609.94;5023728;28;20385;-45
2023/12/08 05:09:41;;;;;;;;;;;;;;;22.91;28.67;100610.59;5008849;28;19910;-45
2023/12/08 05:12:06;;;;;;;;;;;;;;;22.91;28.80;100611.44;5017505;28;19921;-48
2023/12/08 05:14:31;;;;;;;;;;;;;;;22.93;29.12;100617.47;5040561;28;20395;-46
2023/12/08 05:16:56;;;;;;;;;;;;;;;22.99;28.90;100610.44;5015846;28;19918;-46
2023/12/08 05:19:22;;;;;;;;;;;;;;;23.00;29.10;100620.22;5010015;28;19920;-44
2023/12/08 05:21:47;;;;;;;;;;;;;;;23.04;28.58;100621.50;5026736;28;19919;-46
2023/12/08 05:24:12;;;;;;;;;;;;;;;23.07;28.96;100612.13;5030462;28;19913;-45
2023/12/08 05:26:37;;;;;;;;;;;;;;;23.10;28.73;100615.25;5022468;28;19979;-45
2023/12/08 05:29:03;;;;;;;;;;;;;;;23.11;28.82;100616.94;5038167;28;20392;-46
2023/12/08 05:31:28;;;;;;;;;;;;;;;23.12;28.72;100610.47;5022820;28;19914;-46
2023/12/08 05:33:53;;;;;;;;;;;;;;;23.15;28.36;100607.38;5011568;28;19914;-46
2023/12/08 05:36:19;;;;;;;;;;;;;;;23.18;28.45;100604.22;5037272;28;19924;-45
2023/12/08 05:38:44;;;;;;;;;;;;;;;23.18;28.42;100595.25;5029592;28;19946;-44
2023/12/08 05:41:10;;;;;;;;;;;;;;;23.16;28.45;100597.34;5004796;28;19959;-46
2023/12/08 05:43:35;;;;;;;;;;;;;;;23.14;28.61;100597.53;5030469;28;20090;-45
2023/12/08 05:46:00;;;;;;;;;;;;;;;23.14;28.43;100597.53;5053578;28;19925;-44
2023/12/08 05:48:25;;;;;;;;;;;;;;;23.14;28.41;100589.41;5035722;28;20376;-44
2023/12/08 05:50:50;;;;;;;;;;;;;;;23.13;28.35;100584.19;5039566;28;19934;-44
2023/12/08 05:53:16;;;;;;;;;;;;;;;23.11;28.53;100565.41;5038100;28;19928;-45
2023/12/08 05:55:41;;;;;;;;;;;;;;;23.09;28.48;100564.78;5014162;28;19917;-44
2023/12/08 05:58:06;;;;;;;;;;;;;;;23.08;28.66;100559.56;5023174;28;19918;-46
2023/12/08 06:00:32;;;;;;;;;;;;;;;23.04;28.88;100572.69;5044447;28;19924;-44
2023/12/08 06:02:57;;;;;;;;;;;;;;;22.99;28.54;100569.75;5030959;28;20050;-46
2023/12/08 06:05:22;;;;;;;;;;;;;;;22.99;29.01;100574.34;5045942;28;19919;-45
2023/12/08 06:07:47;;;;;;;;;;;;;;;23.00;29.01;100555.16;5015673;28;19916;-45
2023/12/08 06:10:12;;;;;;;;;;;;;;;23.03;28.94;100545.78;5020639;28;19913;-45
2023/12/08 06:12:38;;;;;;;;;;;;;;;23.05;28.86;100551.84;5068092;28;19920;-44
2023/12/08 06:15:05;;;;;;;;;;;;;;;23.08;28.91;100557.69;5017311;28;19926;-44
2023/12/08 06:17:30;;;;;;;;;;;;;;;23.12;28.83;100550.81;5005925;28;19924;-44
2023/12/08 06:19:56;;;;;;;;;;;;;;;23.16;28.48;100567.50;5013468;28;19916;-44
2023/12/08 06:22:21;;;;;;;;;;;;;;;23.22;28.38;100561.25;5023965;28;20292;-43
2023/12/08 06:24:46;;;;;;;;;;;;;;;23.19;28.57;100551.69;5030728;28;20674;-43
2023/12/08 06:27:11;;;;;;;;;;;;;;;23.17;28.51;100566.47;5018746;28;19914;-45
2023/12/08 06:29:36;;;;;;;;;;;;;;;23.16;28.65;100572.94;5023212;28;19944;-45
2023/12/08 06:32:02;;;;;;;;;;;;;;;23.18;28.84;100579.81;5050693;28;20166;-44
2023/12/08 06:34:27;;;;;;;;;;;;;;;23.22;28.68;100580.25;5036275;28;19918;-44
2023/12/08 06:36:52;;;;;;;;;;;;;;;23.24;28.50;100578.19;5018436;28;19926;-45
2023/12/08 06:39:18;;;;;;;;;;;;;;;23.26;28.62;100581.50;5020194;28;20322;-46
2023/12/08 06:41:43;;;;;;;;;;;;;;;23.30;28.46;100566.50;5014767;28;19921;-45
2023/12/08 06:44:08;;;;;;;;;;;;;;;23.33;28.63;100570.69;5013003;28;19916;-45
2023/12/08 06:46:34;;;;;;;;;;;;;;;23.33;28.77;100578.81;5034514;28;20372;-47
2023/12/08 06:48:59;;;;;;;;;;;;;;;23.33;28.65;100578.81;5024363;28;19914;-47
2023/12/08 06:51:24;;;;;;;;;;;;;;;23.36;28.76;100576.53;5009926;28;19913;-49
2023/12/08 06:53:49;;;;;;;;;;;;;;;23.39;28.50;100580.69;5030847;28;19984;-45
2023/12/08 06:56:15;;;;;;;;;;;;;;;23.37;28.72;100578.19;5016648;28;19921;-45
2023/12/08 06:58:40;;;;;;;;;;;;;;;23.35;28.84;100588.41;5010961;28;19936;-46
2023/12/08 07:01:07;;;;;;;;;;;;;;;23.35;28.82;100601.13;5015490;28;20421;-44
2023/12/08 07:03:32;;;;;;;;;;;;;;;23.37;29.22;100589.06;5027586;28;19925;-49
2023/12/08 07:05:57;;;;;;;;;;;;;;;23.41;29.13;100587.59;5013095;28;19923;-47
2023/12/08 07:08:22;;;;;;;;;;;;;;;23.44;28.80;100591.75;5012814;28;20379;-46
2023/12/08 07:10:48;;;;;;;;;;;;;;;23.46;28.67;100584.25;5016093;28;19917;-49
2023/12/08 07:13:13;;;;;;;;;;;;;;;23.45;28.72;100586.16;5002914;28;20342;-47
2023/12/08 07:15:39;;;;;;;;;;;;;;;23.47;28.71;100585.09;4999721;28;19940;-45
2023/12/08 07:18:04;;;;;;;;;;;;;;;23.49;28.97;100592.00;5018430;28;20105;-44
2023/12/08 07:20:29;;;;;;;;;;;;;;;23.49;29.04;100585.72;5083800;28;19914;-48
2023/12/08 07:22:55;;;;;;;;;;;;;;;23.51;28.53;100581.75;5007773;28;19962;-49
2023/12/08 07:25:20;;;;;;;;;;;;;;;23.52;28.93;100586.13;5018674;28;19921;-50
2023/12/08 07:27:46;;;;;;;;;;;;;;;23.56;28.71;100579.25;5045910;28;19923;-47
2023/12/08 07:30:11;;;;;;;;;;;;;;;23.55;29.02;100582.19;5024776;28;19964;-49
2023/12/08 07:32:36;;;;;;;;;;;;;;;23.58;28.68;100574.47;5031156;28;19924;-45
2023/12/08 07:35:01;;;;;;;;;;;;;;;23.53;28.93;100576.94;5025586;28;19917;-48
2023/12/08 07:37:27;;;;;;;;;;;;;;;23.57;28.82;100588.22;5011605;28;19958;-46
2023/12/08 07:39:52;;;;;;;;;;;;;;;23.58;28.59;100582.59;5015498;28;19922;-44
2023/12/08 07:42:17;;;;;;;;;;;;;;;23.56;28.69;100571.13;5027840;28;20470;-45
2023/12/08 07:44:44;;;;;;;;;;;;;;;23.53;28.73;100576.13;5006120;28;19935;-45
2023/12/08 07:47:09;;;;;;;;;;;;;;;23.45;28.91;100575.28;5071926;28;19968;-48
2023/12/08 07:49:34;;;;;;;;;;;;;;;23.42;28.62;100578.41;5014989;28;19916;-45
2023/12/08 07:51:59;;;;;;;;;;;;;;;23.38;28.65;100590.72;5012109;28;19965;-46
2023/12/08 07:54:25;;;;;;;;;;;;;;;23.35;29.08;100591.13;5007566;28;19928;-47
2023/12/08 07:56:50;;;;;;;;;;;;;;;23.35;29.08;100598.44;5039530;28;19920;-43
2023/12/08 07:59:15;;;;;;;;;;;;;;;23.36;29.10;100606.38;5070728;28;19925;-46
2023/12/08 08:01:40;;;;;;;;;;;;;;;23.35;29.08;100606.56;5009854;28;20401;-44
2023/12/08 08:04:06;;;;;;;;;;;;;;;23.34;28.85;100602.19;5014194;28;19937;-49
2023/12/08 08:06:31;;;;;;;;;;;;;;;23.35;28.82;100606.56;5016732;28;19908;-44
2023/12/08 08:08:56;;;;;;;;;;;;;;;23.32;29.21;100599.69;5005718;28;20445;-44
2023/12/08 08:11:21;;;;;;;;;;;;;;;23.30;28.94;100601.75;5013473;28;19980;-45
2023/12/08 08:13:46;;;;;;;;;;;;;;;23.33;28.97;100614.09;5023973;28;19934;-43
2023/12/08 08:16:12;;;;;;;;;;;;;;;23.35;29.27;100615.53;5008304;28;19917;-45
2023/12/08 08:18:37;;;;;;;;;;;;;;;23.38;29.05;100617.84;5032933;28;19967;-45
2023/12/08 08:21:02;;;;;;;;;;;;;;;23.38;28.92;100623.28;5010022;28;19929;-48
2023/12/08 08:23:27;;;;;;;;;;;;;;;23.37;29.07;100621.59;5006082;28;19928;-46
2023/12/08 08:25:53;;;;;;;;;;;;;;;23.40;29.28;100615.75;5020304;28;19912;-48
2023/12/08 08:28:18;;;;;;;;;;;;;;;23.43;28.94;100623.47;5016106;28;19963;-48
2023/12/08 08:30:44;;;;;;;;;;;;;;;23.48;28.80;100624.75;5069271;28;20009;-48
2023/12/08 08:33:09;;;;;;;;;;;;;;;23.51;28.84;100627.88;5020240;28;19963;-46
2023/12/08 08:35:34;;;;;;;;;;;;;;;23.53;28.78;100609.50;5037179;28;19929;-46
2023/12/08 08:37:59;;;;;;;;;;;;;;;23.56;28.69;100617.25;5004112;28;19914;-44
2023/12/08 08:40:24;;;;;;;;;;;;;;;23.60;28.87;100614.97;5079100;28;20384;-44
2023/12/08 08:42:50;;;;;;;;;;;;;;;23.62;28.67;100607.47;5012133;28;19948;-47
2023/12/08 08:45:15;;;;;;;;;;;;;;;23.58;28.65;100604.31;5025101;28;19921;-46
2023/12/08 08:47:41;;;;;;;;;;;;;;;23.57;28.80;100615.38;5014219;28;19921;-47
2023/12/08 08:50:06;;;;;;;;;;;;;;;23.57;28.50;100615.38;5081662;28;19918;-47
2023/12/08 08:52:31;;;;;;;;;;;;;;;23.57;28.54;100618.06;5022822;28;19941;-46
2023/12/08 08:54:56;;;;;;;;;;;;;;;23.59;28.64;100613.28;5012198;28;19989;-45
2023/12/08 08:57:23;;;;;;;;;;;;;;;23.60;28.67;100615.78;5025359;28;19932;-48
2023/12/08 08:59:48;;;;;;;;;;;;;;;23.57;28.88;100610.78;5025773;28;19921;-46
2023/12/08 09:02:13;;;;;;;;;;;;;;;23.56;28.62;100609.09;5005758;28;19922;-48
2023/12/08 09:04:38;;;;;;;;;;;;;;;23.58;28.86;100617.06;5025155;28;19923;-47
2023/12/08 09:07:03;;;;;;;;;;;;;;;23.58;28.91;100617.91;5031086;28;20387;-46
2023/12/08 09:09:28;;;;;;;;;;;;;;;23.60;28.98;100620.38;5005227;28;19914;-43
2023/12/08 09:11:54;;;;;;;;;;;;;;;23.60;29.03;100618.50;5085078;28;19914;-47
2023/12/08 09:14:19;;;;;;;;;;;;;;;23.62;28.74;100613.72;5008943;28;20008;-43
2023/12/08 09:16:46;;;;;;;;;;;;;;;23.64;28.95;100616.22;5012463;28;19924;-46
2023/12/08 09:19:11;;;;;;;;;;;;;;;23.62;28.66;100619.16;5015993;28;19914;-45
2023/12/08 09:21:37;;;;;;;;;;;;;;;23.61;28.90;100619.34;5015102;28;19914;-47
2023/12/08 09:24:02;;;;;;;;;;;;;;;23.62;28.94;100619.16;5005366;28;19914;-44
2023/12/08 09:26:27;;;;;;;;;;;;;;;23.62;28.70;100613.72;5021566;28;19914;-47
2023/12/08 09:28:52;;;;;;;;;;;;;;;23.62;28.76;100615.59;5026589;28;20418;-44
2023/12/08 09:31:17;;;;;;;;;;;;;;;23.60;28.65;100606.81;5012018;28;19925;-44
2023/12/08 09:33:43;;;;;;;;;;;;;;;23.61;28.83;100614.75;5015289;28;19924;-46
2023/12/08 09:36:08;;;;;;;;;;;;;;;23.63;28.86;100617.28;5017868;28;19933;-49
2023/12/08 09:38:33;;;;;;;;;;;;;;;23.63;28.96;100620.81;5005213;28;19914;-47
2023/12/08 09:40:59;;;;;;;;;;;;;;;23.63;28.72;100618.09;5018099;28;19916;-45
2023/12/08 09:43:42;;;;;;;;;;;;;;;23.50;28.70;100599.09;5031523;28;19949;-44
2023/12/08 09:46:08;;;;;;;;;;;;;;;23.64;28.65;100630.63;5069618;28;19948;-44
2023/12/08 09:48:34;;;;;;;;;;;;;;;23.65;28.89;100631.47;5067922;28;20384;-46
2023/12/08 09:50:59;;;;;;;;;;;;;;;23.62;28.84;100627.28;5021110;28;19917;-44
2023/12/08 09:53:24;;;;;;;;;;;;;;;23.58;29.03;100625.19;5033435;28;19940;-46
2023/12/08 09:55:49;;;;;;;;;;;;;;;23.55;28.86;100622.91;5077875;28;19922;-48
2023/12/08 09:58:14;;;;;;;;;;;;;;;23.53;29.24;100624.97;5022619;28;20460;-45
2023/12/08 10:00:40;;;;;;;;;;;;;;;23.47;29.26;100623.91;5067904;28;19914;-46
2023/12/08 10:03:05;;;;;;;;;;;;;;;23.46;29.07;100627.69;5008212;28;20267;-45
2023/12/08 10:05:30;;;;;;;;;;;;;;;23.48;29.20;100639.16;5006597;28;20257;-46
2023/12/08 10:07:56;;;;;;;;;;;;;;;23.44;29.27;100637.88;5031262;28;19913;-47
2023/12/08 10:10:22;;;;;;;;;;;;;;;23.40;29.37;100642.88;5066195;28;19918;-43
2023/12/08 10:12:47;;;;;;;;;;;;;;;23.37;29.41;100623.50;5031590;28;19974;-47
2023/12/08 10:15:13;;;;;;;;;;;;;;;23.39;29.36;100632.25;5018046;28;19920;-45
2023/12/08 10:18:05;;;;;;;;;;;;;;;23.38;29.40;100634.13;5065915;28;19922;-44
2023/12/08 10:20:30;;;;;;;;;;;;;;;23.39;29.27;100627.66;4998272;28;19921;-49
2023/12/08 10:22:58;;;;;;;;;;;;;;;23.39;29.42;100635.78;5077846;28;19918;-44
2023/12/08 10:25:24;;;;;;;;;;;;;;;23.40;29.46;100633.91;5021865;28;19916;-45
2023/12/08 10:27:50;;;;;;;;;;;;;;;23.41;29.37;100635.59;5014372;28;19963;-44
2023/12/08 10:30:15;;;;;;;;;;;;;;;23.41;29.24;100636.44;5027259;28;19979;-44
2023/12/08 10:32:41;;;;;;;;;;;;;;;23.44;29.34;100632.47;5008420;28;19945;-46
2023/12/08 10:35:07;;;;;;;;;;;;;;;23.44;29.13;100627.88;5005213;28;20133;-44
2023/12/08 10:37:32;;;;;;;;;;;;;;;23.45;29.26;100623.31;5021378;28;20334;-44
2023/12/08 10:39:58;;;;;;;;;;;;;;;23.45;29.07;100621.41;5028406;28;19922;-47
2023/12/08 10:42:23;;;;;;;;;;;;;;;23.41;29.51;100620.16;5006218;28;19912;-45
2023/12/08 10:44:49;;;;;;;;;;;;;;;23.38;29.22;100620.56;5026576;28;20395;-44
2023/12/08 10:47:14;;;;;;;;;;;;;;;23.39;29.42;100633.06;5011047;28;19917;-48
2023/12/08 10:49:39;;;;;;;;;;;;;;;23.39;29.28;100635.78;5010874;28;19928;-44
2023/12/08 10:52:05;;;;;;;;;;;;;;;23.40;29.36;100632.03;5065469;28;19923;-44
2023/12/08 10:54:30;;;;;;;;;;;;;;;23.43;29.21;100633.50;5025964;28;19925;-47
2023/12/08 10:56:56;;;;;;;;;;;;;;;23.48;29.25;100630.19;5072580;28;20014;-43
2023/12/08 10:59:23;;;;;;;;;;;;;;;23.43;29.53;100622.66;5069189;28;19943;-43
2023/12/08 11:01:48;;;;;;;;;;;;;;;23.43;29.56;100611.81;5015997;28;19920;-46
2023/12/08 11:04:16;;;;;;;;;;;;;;;23.45;29.42;100612.44;5062479;28;19957;-45
2023/12/08 11:06:48;;;;;;;;;;;;;;;23.42;29.52;100612.84;5017003;28;19918;-45
2023/12/08 11:09:15;;;;;;;;;;;;;;;23.41;29.57;100622.03;5066704;28;20379;-44
2023/12/08 11:11:42;;;;;;;;;;;;;;;23.39;29.70;100618.69;5060386;28;19948;-47
2023/12/08 11:14:13;;;;;;;;;;;;;;;23.34;29.31;100611.16;5063056;28;19922;-45
2023/12/08 11:16:57;;;;;;;;;;;;;;;23.39;29.54;100624.09;5028581;28;20278;-44
2023/12/08 11:19:23;;;;;;;;;;;;;;;23.36;29.74;100617.22;5011073;28;19918;-44
2023/12/08 11:21:48;;;;;;;;;;;;;;;23.35;29.47;100614.69;5063405;28;19924;-44
2023/12/08 11:24:13;;;;;;;;;;;;;;;23.35;29.39;100615.53;5013589;28;19928;-43
2023/12/08 11:26:57;;;;;;;;;;;;;;;23.36;29.69;100610.94;5015487;28;19967;-44
2023/12/08 11:29:34;;;;;;;;;;;;;;;23.34;29.86;100608.44;5012818;28;19983;-43
2023/12/08 11:32:02;;;;;;;;;;;;;;;23.37;29.83;100605.34;5012621;28;19918;-45
2023/12/08 11:34:32;;;;;;;;;;;;;;;23.42;29.81;100610.13;5020347;28;19924;-44
2023/12/08 11:36:58;;;;;;;;;;;;;;;23.44;29.75;100617.00;5066479;28;20384;-43
2023/12/08 11:39:38;;;;;;;;;;;;;;;23.43;29.88;100615.34;5023535;28;20482;-43
2023/12/08 11:42:04;;;;;;;;;;;;;;;23.45;29.94;100607.84;5002298;28;20530;-43
2023/12/08 11:44:32;;;;;;;;;;;;;;;23.45;29.75;100618.72;5006075;28;19943;-47
2023/12/08 11:46:59;;;;;;;;;;;;;;;23.45;29.95;100620.59;5001619;28;20949;-44
2023/12/08 11:49:25;;;;;;;;;;;;;;;23.48;29.70;100611.19;5008437;28;19914;-43
2023/12/08 11:52:05;;;;;;;;;;;;;;;23.53;29.43;100611.38;5068004;28;19913;-43
2023/12/08 11:54:50;;;;;;;;;;;;;;;23.52;29.95;100615.16;5008817;28;19925;-44
2023/12/08 11:57:15;;;;;;;;;;;;;;;23.51;30.08;100616.19;5003906;28;19922;-44
2023/12/08 11:59:43;;;;;;;;;;;;;;;23.50;30.12;100614.53;5079183;28;19914;-43
2023/12/08 12:02:09;;;;;;;;;;;;;;;23.50;29.91;100619.97;5012839;28;19991;-47
2023/12/08 12:04:34;;;;;;;;;;;;;;;23.50;30.08;100611.81;5062851;28;19918;-43
2023/12/08 12:06:59;;;;;;;;;;;;;;;23.45;30.16;100604.31;5008237;28;19917;-45
2023/12/08 12:09:24;;;;;;;;;;;;;;;22.94;30.48;100537.84;5069495;28;19912;-43
2023/12/08 12:11:49;;;;;;;;;;;;;;;23.32;30.52;100609.69;5059989;28;19921;-42
2023/12/08 12:14:15;;;;;;;;;;;;;;;23.24;30.56;100612.59;5068285;28;20383;-43
2023/12/08 12:16:40;;;;;;;;;;;;;;;23.17;30.59;100624.25;5062429;28;19925;-43
2023/12/08 12:19:05;;;;;;;;;;;;;;;23.11;30.64;100630.50;5035766;28;19913;-43
2023/12/08 12:21:31;;;;;;;;;;;;;;;23.06;30.79;100621.28;5021786;28;19917;-43
2023/12/08 12:23:56;;;;;;;;;;;;;;;23.01;30.59;100630.03;5022743;28;19921;-45
2023/12/08 12:26:21;;;;;;;;;;;;;;;22.97;30.93;100636.91;5049065;28;19918;-45
2023/12/08 12:28:47;;;;;;;;;;;;;;;22.92;30.76;100633.97;5035112;28;19918;-42